createdAt,value
2023-05-12T00:00:40.331Z,3.42
2023-05-12T00:03:42.152Z,3.03
2023-05-12T00:06:43.785Z,3.30
2023-05-12T00:09:45.341Z,4.10
2023-05-12T00:12:47.843Z,3.13
2023-05-12T00:15:50.802Z,3.33
2023-05-12T00:18:52.548Z,3.78
2023-05-12T00:21:54.262Z,3.30
2023-05-12T00:24:55.840Z,4.45
2023-05-12T00:27:57.452Z,4.18
2023-05-12T00:31:03.199Z,4.30
2023-05-12T00:34:04.824Z,4.05
2023-05-12T00:37:06.551Z,2.75
2023-05-12T00:40:09.453Z,3.25
2023-05-12T00:43:11.559Z,4.68
2023-05-12T00:46:13.218Z,3.25
2023-05-12T00:49:14.878Z,2.58
2023-05-12T00:52:16.505Z,4.03
2023-05-12T00:55:18.185Z,2.58
2023-05-12T00:58:19.739Z,3.28
2023-05-12T01:01:21.568Z,4.85
2023-05-12T01:04:23.357Z,2.78
2023-05-12T01:07:26.117Z,3.40
2023-05-12T01:10:27.722Z,2.95
2023-05-12T01:13:29.294Z,3.58
2023-05-12T01:16:37.201Z,3.03
2023-05-12T01:19:47.449Z,2.85
2023-05-12T01:22:50.100Z,2.92
2023-05-12T01:25:52.931Z,4.22
2023-05-12T01:28:55.442Z,4.18
2023-05-12T01:31:57.448Z,2.13
2023-05-12T01:34:59.194Z,3.15
2023-05-12T01:38:00.799Z,3.33
2023-05-12T01:41:02.363Z,2.92
2023-05-12T01:44:03.933Z,4.28
2023-05-12T01:47:05.644Z,2.83
2023-05-12T01:50:07.936Z,3.83
2023-05-12T01:53:12.476Z,3.50
2023-05-12T01:56:14.160Z,4.57
2023-05-12T01:59:15.786Z,3.65
2023-05-12T02:02:17.465Z,3.15
2023-05-12T02:05:19.275Z,4.05
2023-05-12T02:08:21.550Z,3.42
2023-05-12T02:11:23.286Z,3.75
2023-05-12T02:14:24.926Z,5.47
2023-05-12T02:17:28.202Z,7.55
2023-05-12T02:20:29.858Z,2.92
2023-05-12T02:23:31.611Z,4.75
2023-05-12T02:26:33.229Z,3.92
2023-05-12T02:29:34.866Z,3.72
2023-05-12T02:32:36.471Z,5.05
2023-05-12T02:35:38.250Z,3.90
2023-05-12T02:38:40.405Z,2.95
2023-05-12T02:41:42.031Z,4.45
2023-05-12T02:44:43.616Z,3.42
2023-05-12T02:47:45.331Z,3.40
2023-05-12T02:50:46.912Z,4.50
2023-05-12T02:53:48.540Z,5.47
2023-05-12T02:56:50.156Z,4.13
2023-05-12T02:59:51.719Z,5.75
2023-05-12T03:02:53.311Z,3.72
2023-05-12T03:05:55.360Z,4.20
2023-05-12T03:08:56.990Z,3.92
2023-05-12T03:11:58.533Z,5.18
2023-05-12T03:15:00.121Z,3.60
2023-05-12T03:18:01.759Z,3.90
2023-05-12T03:21:03.720Z,4.90
2023-05-12T03:24:05.970Z,3.33
2023-05-12T03:27:07.722Z,4.85
2023-05-12T03:30:09.799Z,2.92
2023-05-12T03:33:11.343Z,4.50
2023-05-12T03:36:12.917Z,3.92
2023-05-12T03:39:14.480Z,6.88
2023-05-12T03:42:16.257Z,3.88
2023-05-12T03:45:18.054Z,3.85
2023-05-12T03:48:19.650Z,5.30
2023-05-12T03:51:21.250Z,3.50
2023-05-12T03:54:22.824Z,5.18
2023-05-12T03:57:24.404Z,3.70
2023-05-12T04:00:26.200Z,3.47
2023-05-12T04:03:31.209Z,3.70
2023-05-12T04:06:32.839Z,4.00
2023-05-12T04:09:34.430Z,3.55
2023-05-12T04:12:36.155Z,4.28
2023-05-12T04:15:38.209Z,4.50
2023-05-12T04:18:39.872Z,3.78
2023-05-12T04:21:41.581Z,4.15
2023-05-12T04:24:43.131Z,3.78
2023-05-12T04:27:44.731Z,4.00
2023-05-12T04:30:46.360Z,3.30
2023-05-12T04:33:48.466Z,5.15
2023-05-12T04:36:50.161Z,3.03
2023-05-12T04:39:51.811Z,5.07
2023-05-12T04:42:53.568Z,3.10
2023-05-12T04:45:55.508Z,3.13
2023-05-12T04:48:57.217Z,5.63
2023-05-12T04:51:58.802Z,6.38
2023-05-12T04:55:00.363Z,4.05
2023-05-12T04:58:01.984Z,4.43
2023-05-12T05:01:03.751Z,4.65
2023-05-12T05:04:05.586Z,3.92
2023-05-12T05:07:07.177Z,2.97
2023-05-12T05:10:09.187Z,4.20
2023-05-12T05:13:10.736Z,3.45
2023-05-12T05:16:12.320Z,4.00
2023-05-12T05:19:20.802Z,7.72
2023-05-12T05:22:24.110Z,4.15
2023-05-12T05:25:26.914Z,3.72
2023-05-12T05:28:29.005Z,3.70
2023-05-12T05:31:30.609Z,4.00
2023-05-12T05:34:32.250Z,5.18
2023-05-12T05:37:33.892Z,3.75
2023-05-12T05:40:48.837Z,3.20
2023-05-12T05:43:53.504Z,2.42
2023-05-12T05:46:55.105Z,2.72
2023-05-12T05:49:56.704Z,3.72
2023-05-12T05:52:58.306Z,5.13
2023-05-12T05:55:59.874Z,5.53
2023-05-12T05:59:05.586Z,4.28
2023-05-12T06:02:07.357Z,3.97
2023-05-12T06:05:09.710Z,5.88
2023-05-12T06:08:13.548Z,3.83
2023-05-12T06:11:17.891Z,4.18
2023-05-12T06:14:19.646Z,2.70
2023-05-12T06:17:22.007Z,2.65
2023-05-12T06:20:23.680Z,3.05
2023-05-12T06:23:25.392Z,3.63
2023-05-12T06:26:26.930Z,3.88
2023-05-12T06:29:28.519Z,2.80
2023-05-12T06:32:30.196Z,3.40
2023-05-12T06:35:32.043Z,3.50
2023-05-12T06:38:33.614Z,2.22
2023-05-12T06:41:35.207Z,2.65
2023-05-12T06:44:36.970Z,2.90
2023-05-12T06:47:39.268Z,2.45
2023-05-12T06:50:42.280Z,2.50
2023-05-12T06:53:43.900Z,1.77
2023-05-12T06:56:45.969Z,2.63
2023-05-12T06:59:47.727Z,3.45
2023-05-12T07:02:49.373Z,6.75
2023-05-12T07:05:51.285Z,2.72
2023-05-12T07:08:52.897Z,2.83
2023-05-12T07:11:54.942Z,2.17
2023-05-12T07:14:56.526Z,3.38
2023-05-12T07:17:58.143Z,3.30
2023-05-12T07:21:00.121Z,3.50
2023-05-12T07:24:01.791Z,3.92
2023-05-12T07:27:03.542Z,4.50
2023-05-12T07:30:08.814Z,2.95
2023-05-12T07:33:10.428Z,4.32
2023-05-12T07:36:12.018Z,4.63
2023-05-12T07:39:15.114Z,3.10
2023-05-12T07:42:16.742Z,2.90
2023-05-12T07:45:23.063Z,2.95
2023-05-12T07:48:24.717Z,3.20
2023-05-12T07:51:26.354Z,3.53
2023-05-12T07:54:27.919Z,3.33
2023-05-12T07:57:29.486Z,4.07
2023-05-12T08:00:31.122Z,3.13
2023-05-12T08:03:35.999Z,3.85
2023-05-12T08:06:37.735Z,3.33
2023-05-12T08:09:39.325Z,3.22
2023-05-12T08:12:41.719Z,4.13
2023-05-12T08:15:43.330Z,2.97
2023-05-12T08:18:45.076Z,2.42
2023-05-12T08:21:46.700Z,3.08
2023-05-12T08:24:48.308Z,3.05
2023-05-12T08:27:49.854Z,3.88
2023-05-12T08:30:51.559Z,3.67
2023-05-12T08:34:08.934Z,3.13
2023-05-12T08:37:12.301Z,2.85
2023-05-12T08:40:21.018Z,5.25
2023-05-12T08:43:30.029Z,2.88
2023-05-12T08:46:32.165Z,3.45
2023-05-12T08:49:36.378Z,4.00
2023-05-12T08:52:39.155Z,4.50
2023-05-12T08:55:54.392Z,3.03
2023-05-12T08:59:09.256Z,4.70
2023-05-12T09:02:11.712Z,2.88
2023-05-12T09:05:13.369Z,2.95
2023-05-12T09:08:15.466Z,3.75
2023-05-12T09:11:17.902Z,3.63
2023-05-12T09:14:25.633Z,3.83
2023-05-12T09:17:27.316Z,4.25
2023-05-12T09:20:31.904Z,2.42
2023-05-12T09:23:33.750Z,3.03
2023-05-12T09:26:45.696Z,2.58
2023-05-12T09:29:59.076Z,2.88
2023-05-12T09:33:12.342Z,2.05
2023-05-12T09:36:21.662Z,3.33
2023-05-12T09:39:23.449Z,2.83
2023-05-12T09:42:29.116Z,3.45
2023-05-12T09:45:34.977Z,2.10
2023-05-12T09:48:39.013Z,3.50
2023-05-12T09:51:41.590Z,3.42
2023-05-12T09:54:43.500Z,4.45
2023-05-12T09:57:45.610Z,2.92
2023-05-12T10:03:57.101Z,3.70
2023-05-12T10:06:59.568Z,3.25
2023-05-12T10:10:04.420Z,8.07
2023-05-12T10:13:06.336Z,2.92
2023-05-12T10:16:08.925Z,2.63
2023-05-12T10:19:11.100Z,3.13
2023-05-12T10:22:16.033Z,3.10
2023-05-12T10:25:18.255Z,5.25
2023-05-12T10:28:20.311Z,3.85
2023-05-12T10:31:23.207Z,2.58
2023-05-12T10:34:30.615Z,4.65
2023-05-12T10:37:32.623Z,3.40
2023-05-12T10:40:34.431Z,3.95
2023-05-12T10:43:45.226Z,6.10
2023-05-12T10:46:57.963Z,2.70
2023-05-12T10:49:59.689Z,2.85
2023-05-12T10:53:01.402Z,3.95
2023-05-12T10:56:07.979Z,4.30
2023-05-12T10:59:25.457Z,3.25
2023-05-12T11:02:32.327Z,3.65
2023-05-12T11:05:35.524Z,2.92
2023-05-12T11:08:37.812Z,3.40
2023-05-12T11:11:40.472Z,2.30
2023-05-12T11:14:44.672Z,2.78
2023-05-12T11:17:46.850Z,2.58
2023-05-12T11:20:48.875Z,3.05
2023-05-12T11:23:51.258Z,3.03
2023-05-12T11:26:52.864Z,3.85
2023-05-12T11:30:02.940Z,2.75
2023-05-12T11:33:04.656Z,2.60
2023-05-12T11:36:06.762Z,4.15
2023-05-12T11:39:15.754Z,2.83
2023-05-12T11:42:19.770Z,3.40
2023-05-12T11:45:28.606Z,3.78
2023-05-12T11:48:34.729Z,4.97
2023-05-12T11:51:36.465Z,3.70
2023-05-12T11:54:38.337Z,4.05
2023-05-12T11:57:39.904Z,3.55
2023-05-12T12:00:42.201Z,3.30
2023-05-12T12:03:51.250Z,2.25
2023-05-12T12:06:52.946Z,3.13
2023-05-12T12:09:54.519Z,5.93
2023-05-12T12:12:56.147Z,3.15
2023-05-12T12:15:57.880Z,3.90
2023-05-12T12:18:59.556Z,5.63
2023-05-12T12:22:01.176Z,5.25
2023-05-12T12:25:03.690Z,3.40
2023-05-12T12:28:05.936Z,5.28
2023-05-12T12:31:07.535Z,5.45
2023-05-12T12:34:09.366Z,4.10
2023-05-12T12:37:11.269Z,4.68
2023-05-12T12:40:12.844Z,3.88
2023-05-12T12:43:14.468Z,6.00
2023-05-12T12:46:16.014Z,3.88
2023-05-12T12:49:17.553Z,3.88
2023-05-12T12:52:23.959Z,5.45
2023-05-12T12:55:25.929Z,11.25
2023-05-12T12:58:27.829Z,7.05
2023-05-12T13:01:29.793Z,5.50
2023-05-12T13:04:31.450Z,5.00
2023-05-12T13:07:33.571Z,4.78
2023-05-12T13:10:35.436Z,5.57
2023-05-12T13:13:38.124Z,6.95
2023-05-12T13:16:39.796Z,5.50
2023-05-12T13:19:42.002Z,5.50
2023-05-12T13:22:44.290Z,4.95
2023-05-12T13:25:46.500Z,4.88
2023-05-12T13:28:48.061Z,4.82
2023-05-12T13:31:49.629Z,3.40
2023-05-12T13:34:51.241Z,4.13
2023-05-12T13:37:53.055Z,4.13
2023-05-12T13:40:54.610Z,3.22
2023-05-12T13:43:56.253Z,5.22
2023-05-12T13:46:57.858Z,5.13
2023-05-12T13:49:59.520Z,5.53
2023-05-12T13:53:01.270Z,2.75
2023-05-12T13:56:02.971Z,6.03
2023-05-12T13:59:05.361Z,6.30
2023-05-12T14:02:09.878Z,5.07
2023-05-12T14:05:12.042Z,3.90
2023-05-12T14:08:13.701Z,3.40
2023-05-12T14:11:15.841Z,6.88
2023-05-12T14:14:17.390Z,5.75
2023-05-12T14:17:19.107Z,4.90
2023-05-12T14:20:20.697Z,4.82
2023-05-12T14:23:22.312Z,3.95
2023-05-12T14:26:25.644Z,3.35
2023-05-12T14:29:27.417Z,4.28
2023-05-12T14:32:29.081Z,4.93
2023-05-12T14:35:30.694Z,4.20
2023-05-12T14:38:32.213Z,4.88
2023-05-12T14:41:34.033Z,4.22
2023-05-12T14:44:35.631Z,5.07
2023-05-12T14:47:37.696Z,6.72
2023-05-12T14:50:39.386Z,4.03
2023-05-12T14:53:40.963Z,4.35
2023-05-12T14:56:43.129Z,4.70
2023-05-12T14:59:44.693Z,4.78
2023-05-12T15:02:46.524Z,4.35
2023-05-12T15:06:04.666Z,3.88
2023-05-12T15:09:08.479Z,5.53
2023-05-12T15:12:10.305Z,4.15
2023-05-12T15:15:12.175Z,3.97
2023-05-12T15:18:13.801Z,4.57
2023-05-12T15:21:15.557Z,4.63
2023-05-12T15:24:17.150Z,4.30
2023-05-12T15:27:18.846Z,3.85
2023-05-12T15:30:20.678Z,4.53
2023-05-12T15:33:22.282Z,4.45
2023-05-12T15:36:24.224Z,5.25
2023-05-12T15:39:26.343Z,3.90
2023-05-12T15:42:32.930Z,5.95
2023-05-12T15:48:39.759Z,5.22
2023-05-12T15:51:41.438Z,4.80
2023-05-12T15:54:43.027Z,5.38
2023-05-12T15:57:44.731Z,5.57
2023-05-12T16:00:46.553Z,5.45
2023-05-12T16:03:50.133Z,5.57
2023-05-12T16:06:51.768Z,5.82
2023-05-12T16:09:53.344Z,5.68
2023-05-12T16:12:54.892Z,6.40
2023-05-12T16:15:57.489Z,5.38
2023-05-12T16:18:59.193Z,4.80
2023-05-12T16:22:00.801Z,3.95
2023-05-12T16:25:02.418Z,7.32
2023-05-12T16:28:04.303Z,4.53
2023-05-12T16:31:05.893Z,6.22
2023-05-12T16:34:08.651Z,4.68
2023-05-12T16:37:10.253Z,5.60
2023-05-12T16:40:12.220Z,7.30
2023-05-12T16:43:13.869Z,5.70
2023-05-12T16:46:15.565Z,5.75
2023-05-12T16:49:17.272Z,5.22
2023-05-12T16:52:19.197Z,6.57
2023-05-12T16:55:21.624Z,7.82
2023-05-12T16:58:24.101Z,5.40
2023-05-12T17:01:25.839Z,7.90
2023-05-12T17:04:27.532Z,4.60
2023-05-12T17:07:29.198Z,5.18
2023-05-12T17:10:30.791Z,6.03
2023-05-12T17:13:35.835Z,5.70
2023-05-12T17:16:37.554Z,6.38
2023-05-12T17:19:41.921Z,6.78
2023-05-12T17:22:47.198Z,6.25
2023-05-12T17:25:48.880Z,5.00
2023-05-12T17:28:50.502Z,5.45
2023-05-12T17:31:52.136Z,6.38
2023-05-12T17:34:53.806Z,5.57
2023-05-12T17:37:55.769Z,6.03
2023-05-12T17:40:57.394Z,5.45
2023-05-12T17:43:59.225Z,5.40
2023-05-12T17:47:00.907Z,7.38
2023-05-12T17:50:02.531Z,5.43
2023-05-12T17:53:04.082Z,5.35
2023-05-12T17:56:05.933Z,6.72
2023-05-12T17:59:07.489Z,5.72
2023-05-12T18:02:09.048Z,5.30
2023-05-12T18:05:11.014Z,8.15
2023-05-12T18:08:12.602Z,7.25
2023-05-12T18:11:14.660Z,6.70
2023-05-12T18:14:16.876Z,7.90
2023-05-12T18:17:19.674Z,7.47
2023-05-12T18:20:21.352Z,8.40
2023-05-12T18:23:22.946Z,8.43
2023-05-12T18:26:24.542Z,8.38
2023-05-12T18:29:26.314Z,6.68
2023-05-12T18:32:27.994Z,5.43
2023-05-12T18:35:29.757Z,5.78
2023-05-12T18:38:31.331Z,7.88
2023-05-12T18:41:33.004Z,5.70
2023-05-12T18:44:34.576Z,7.88
2023-05-12T18:47:36.416Z,6.15
2023-05-12T18:50:37.992Z,5.32
2023-05-12T18:53:39.550Z,5.40
2023-05-12T18:56:41.237Z,5.60
2023-05-12T18:59:42.827Z,5.80
2023-05-12T19:02:45.272Z,6.63
2023-05-12T19:05:48.909Z,5.22
2023-05-12T19:08:50.944Z,7.90
2023-05-12T19:11:52.580Z,4.78
2023-05-12T19:14:54.258Z,6.72
2023-05-12T19:17:55.870Z,5.22
2023-05-12T19:20:57.484Z,4.50
2023-05-12T19:23:59.205Z,4.50
2023-05-12T19:27:01.389Z,3.35
2023-05-12T19:30:05.103Z,4.28
2023-05-12T19:33:06.840Z,4.80
2023-05-12T19:36:09.770Z,4.85
2023-05-12T19:39:11.353Z,5.38
2023-05-12T19:42:13.079Z,6.25
2023-05-12T19:45:15.605Z,7.43
2023-05-12T19:48:17.734Z,7.03
2023-05-12T19:51:19.364Z,5.97
2023-05-12T19:54:20.926Z,6.93
2023-05-12T19:57:23.118Z,6.22
2023-05-12T20:00:26.705Z,6.25
2023-05-12T20:03:28.313Z,7.32
2023-05-12T20:06:30.862Z,6.68
2023-05-12T20:09:32.830Z,5.47
2023-05-12T20:12:34.392Z,9.70
2023-05-12T20:15:35.959Z,6.22
2023-05-12T20:18:37.841Z,8.68
2023-05-12T20:21:41.456Z,9.35
2023-05-12T20:24:44.719Z,6.50
2023-05-12T20:27:46.666Z,5.63
2023-05-12T20:30:48.235Z,9.13
2023-05-12T20:33:49.768Z,5.78
2023-05-12T20:36:51.384Z,5.95
2023-05-12T20:39:54.082Z,7.68
2023-05-12T20:42:55.721Z,5.45
2023-05-12T20:45:57.369Z,6.32
2023-05-12T20:48:59.153Z,6.72
2023-05-12T20:52:00.760Z,8.00
2023-05-12T20:55:02.517Z,4.25
2023-05-12T20:58:04.090Z,5.63
2023-05-12T21:01:05.791Z,6.13
2023-05-12T21:04:07.727Z,6.32
2023-05-12T21:07:09.334Z,5.85
2023-05-12T21:10:11.497Z,6.82
2023-05-12T21:13:13.165Z,5.22
2023-05-12T21:16:15.551Z,4.57
2023-05-12T21:19:17.153Z,6.97
2023-05-12T21:22:18.731Z,6.43
2023-05-12T21:25:20.790Z,5.55
2023-05-12T21:28:22.365Z,6.32
2023-05-12T21:31:24.102Z,6.55
2023-05-12T21:34:26.429Z,5.80
2023-05-12T21:37:27.998Z,5.38
2023-05-12T21:40:30.035Z,5.72
2023-05-12T21:43:31.609Z,7.80
2023-05-12T21:46:34.424Z,6.57
2023-05-12T21:49:36.207Z,7.35
2023-05-12T21:52:37.981Z,5.60
2023-05-12T21:55:41.166Z,5.75
2023-05-12T21:58:42.925Z,7.03
2023-05-12T22:01:44.550Z,6.32
2023-05-12T22:04:46.567Z,5.95
2023-05-12T22:07:48.308Z,6.78
2023-05-12T22:10:49.945Z,6.35
2023-05-12T22:13:51.530Z,7.30
2023-05-12T22:16:53.130Z,7.50
2023-05-12T22:19:54.803Z,7.03
2023-05-12T22:22:56.460Z,6.05
2023-05-12T22:25:58.070Z,5.25
2023-05-12T22:28:59.598Z,6.30
2023-05-12T22:32:01.163Z,6.13
2023-05-12T22:35:03.226Z,7.00
2023-05-12T22:38:04.872Z,8.73
2023-05-12T22:41:06.457Z,9.60
2023-05-12T22:44:08.297Z,6.63
2023-05-12T22:47:10.030Z,6.50
2023-05-12T22:50:11.926Z,7.88
2023-05-12T22:53:13.974Z,8.35
2023-05-12T22:56:15.570Z,7.30
2023-05-12T22:59:17.189Z,7.85
2023-05-12T23:02:18.803Z,11.35
2023-05-12T23:05:21.018Z,6.30
2023-05-12T23:08:22.583Z,7.03
2023-05-12T23:11:24.236Z,8.13
2023-05-12T23:14:25.900Z,7.22
2023-05-12T23:17:27.472Z,7.60
2023-05-12T23:20:29.054Z,7.10
2023-05-12T23:23:30.731Z,6.75
2023-05-12T23:26:32.526Z,9.18
2023-05-12T23:29:34.533Z,8.07
2023-05-12T23:32:36.332Z,7.22
2023-05-12T23:35:38.038Z,5.82
2023-05-12T23:38:39.565Z,6.90
2023-05-12T23:41:41.161Z,6.45
2023-05-12T23:44:43.143Z,7.90
2023-05-12T23:47:44.847Z,7.07
2023-05-12T23:50:46.422Z,6.43
2023-05-12T23:53:48.161Z,8.00
2023-05-12T23:56:49.786Z,6.25
2023-05-12T23:59:51.361Z,7.60
